KOLE/OLE METAR and TAF weather

Enter ICAO airport designator
Station Type Date Time Source
KOLE METAR 2019/05/27 09:15 UTC NOAA

KOLE 270915Z AUTO 29003KT 7SM CLR 08/08 A3002 RMK AO2


Station Type Date Time Source
KOLE Decoded METAR 2019/05/27 09:15 UTC NOAA

Olean Municipal, NY, United States (KOLE) 42-14N 078-22W
May 27, 2019 - 05:15 AM EDT / 2019.05.27 0915 UTC
Wind: from the WNW (290 degrees) at 3 MPH (3 KT):0
Visibility: 7 mile(s):0
Sky conditions: clear
Temperature: 46 F (8 C)
Dew Point: 46 F (8 C)
Relative Humidity: 100%
Pressure (altimeter): 30.02 in. Hg (1016 hPa)
ob: KOLE 270915Z AUTO 29003KT 7SM CLR 08/08 A3002 RMK AO2
cycle: 9

Station Type Date Time Source
KOLE TAF UTC NOAA

Error!

Example: see airport list